長崎 の空港の天気 - METARとTAF

長崎空港 ( RJFU / NGS ) - 長崎県大村市
飛行場実況気象(Metar)
観測時間12/16 21:00 JST (12/16 12:00 UTC)
風向・風速北 7m/s
視程10km以上
天気現象弱いしゅう雨 弱いしゅう雪
少しの雲 雲底高度 460m
全天の4割程度の雲 雲底高度 610m
全天の8割程度の雲 雲底高度 1220m
気温6℃
湿度61%
気圧1024hPa
METARRJFU 161200Z 35013KT 9999 -SHRASN FEW015 SCT020 BKN040 06/M01 Q1024
過去の天気等 Google飛行場航空写真 Wunderground天気予報

過去48時間のMETAR

飛行場予報(TAF)
発表時間: 12/16 20:06 JST (12/16 11:06 UTC)
予報対象時間: 16日21時 JST ~ 18日3時 JST
風向・風速北西 9m/s
視程8,000m
天気現象弱いしゅう雨雪
少しの雲 雲底高度 300m
全天の4割程度の雲 雲底高度 760m
全天の8割程度の雲 雲底高度 1,220m
16日23時 JST ~ 17日3時 JST に一時的に
風向・風速北西 10m/s 瞬間風速 15m/s
17日9時 JST ~ 17日15時 JST に一時的に
視程4,000m
天気現象弱いしゅう雪雨
17日21時 JST ~ 17日24時 JST に徐々に
風向・風速北北東 3m/s
TAF RJFU 161106Z 1612/1718 32018KT 8000 -SHRASN FEW010 SCT025 BKN040
TEMPO 1614/1618 31020G30KT
TEMPO 1700/1706 4000 -SHSNRA
BECMG 1712/1715 03005KT
日本の空港のMETAR・TAFへのリンク

RJTT 東京国際空港
RJAA 新東京国際空港
RJBB 関西国際空港
RJOO 大阪空港
RJGG 中部国際空港
RJCC 新千歳空港
RJFF 福岡空港
ROAH 那覇空港


RJEC 旭川空港
RJCH 函館空港
RJCK 釧路空港
RJCM 女満別空港
RJCB 帯広空港
RJSA 青森空港
RJSS 仙台空港
RJSK 秋田空港
RJSF 福島空港
RJAH 茨城空港
RJSN 新潟空港
RJNT 富山空港
RJNK 小松飛行場
RJNS 静岡空港
RJOH 美保飛行場
RJOC 出雲空港
RJOB 岡山空港
RJOA 広島空港
RJOI 岩国飛行場
RJOT 高松空港
RJOM 松山空港
RJOK 高知空港
RJFR 北九州空港
RJFT 熊本空港
RJFU 長崎空港
RJFS 佐賀空港
RJFO 大分空港
RJFM 宮崎空港
RJFK 鹿児島空港
ROIG 石垣島空港
RJTY 横田飛行場
ROTM 普天間飛行場
RODN 嘉手納飛行場